KUIN/UIN METAR and TAF weather

Enter ICAO airport designator
Station Type Date Time Source
KUIN METAR 2019/02/16 06:54 UTC NOAA

KUIN 160654Z AUTO 01009KT 10SM OVC070 M09/M13 A3011 RMK AO2 SLP210 T10891128


Station Type Date Time Source
KUIN Decoded METAR 2019/02/16 06:54 UTC NOAA

QUINCY MUNI. BALDWIN FIELD, IL, United States (KUIN) 39-56N 091-12W
Feb 16, 2019 - 01:54 AM EST / 2019.02.16 0654 UTC
Wind: from the N (010 degrees) at 10 MPH (9 KT):0
Visibility: 10 mile(s):0
Sky conditions: overcast
Temperature: 16.0 F (-8.9 C)
Windchill: 3 F (-16 C):1
Dew Point: 9.0 F (-12.8 C)
Relative Humidity: 73%
Pressure (altimeter): 30.11 in. Hg (1019 hPa)
ob: KUIN 160654Z AUTO 01009KT 10SM OVC070 M09/M13 A3011 RMK AO2 SLP210 T10891128
cycle: 7

Station Type Date Time Source
KUIN TAF 2019/02/16 06:24 UTC NOAA

TAF KUIN 160521Z 1606/1706 36008KT P6SM BKN060
FM160900 02007KT P6SM SCT110
FM161400 05007KT P6SM FEW250
FM161700 08007KT P6SM FEW250
FM170000 08009KT 5SM -SN BR BKN040


Example: see airport list